Worthington Springs, Florida
Current Conditions -  °F | °C
As of 5:53 AM on Saturday 25 Oct 2014 (Local Time) from KGNV Reporting Station
Clear Clear  
Wind Chill: 47°   Ceiling: Unl
Heat Index: 47°   Visibility: 9mi
Dew Point: 46°   Wind: 0mph
Humidity: 97%   Direction: NA
Pressure: 29.99"   Gusts: NA
Location:  29.93°N, 82.42°W
Report Text: KGNV 250953Z AUTO 00000KT 9SM CLR 08/08 A2999 RMK AO2 SLP155 T00830078
Loading
Personal Weather Stations






























Interactive Weather Map
Tropical Storm Tracking
New forecast layout! Learn more

10-Day Weather Forecast

Advertisements
Track Severe Weather on mobile